Time;durP1;ratioP1;P1;durP2;ratioP2;P2;SDS_P1;SDS_P2;PMS_P1;PMS_P2;Temp;Humidity;BMP_temperature;BMP_pressure;BME280_temperature;BME280_humidity;BME280_pressure;Samples;Min_cycle;Max_cycle;Signal;HPM_P1;HPM_P2
2023/05/18 00:02:02;;;;;;;0.10;0.10;;;;;;;14.77;53.54;100248.25;5098681;28;20558;-71
2023/05/18 00:04:30;;;;;;;0.20;0.20;;;;;;;14.72;53.72;100246.38;5093131;28;20049;-71
2023/05/18 00:07:02;;;;;;;;;;;;;;;14.69;53.99;100252.44;5096207;28;20143;-71
2023/05/18 00:09:29;;;;;;;0.10;0.10;;;;;;;14.63;53.65;100239.81;5093864;28;19923;-71
2023/05/18 00:11:56;;;;;;;0.10;0.10;;;;;;;14.72;53.67;100247.16;5096814;28;20541;-72
2023/05/18 00:14:22;;;;;;;0.22;0.22;;;;;;;14.72;53.78;100257.38;5098641;28;20049;-72
2023/05/18 00:16:49;;;;;;;0.20;0.20;;;;;;;14.70;53.88;100252.13;5081813;28;20056;-72
2023/05/18 00:19:15;;;;;;;0.10;0.10;;;;;;;14.67;53.93;100254.63;5086824;28;20692;-72
2023/05/18 00:21:42;;;;;;;0.20;0.20;;;;;;;14.62;54.18;100261.03;5098704;28;20423;-72
2023/05/18 00:24:10;;;;;;;0.20;0.20;;;;;;;14.58;54.00;100249.78;5098874;28;20490;-72
2023/05/18 00:26:37;;;;;;;0.45;0.20;;;;;;;14.58;54.23;100269.03;5093768;27;20675;-71
2023/05/18 00:29:03;;;;;;;0.22;0.22;;;;;;;14.56;54.40;100263.00;5101621;28;20047;-71
2023/05/18 00:31:29;;;;;;;0.20;0.20;;;;;;;14.49;54.70;100254.25;5102296;28;20429;-71
2023/05/18 00:33:55;;;;;;;0.20;0.20;;;;;;;14.45;54.75;100251.28;5098693;28;20075;-72
2023/05/18 00:36:21;;;;;;;0.10;0.10;;;;;;;14.46;55.10;100254.84;5100826;28;20139;-72
2023/05/18 00:38:48;;;;;;;0.20;0.20;;;;;;;14.45;55.12;100261.47;5091974;28;20051;-72
2023/05/18 00:41:15;;;;;;;0.20;0.20;;;;;;;14.44;55.12;100262.56;5094615;28;20062;-72
2023/05/18 00:43:41;;;;;;;0.20;0.20;;;;;;;14.40;55.12;100259.56;5094096;27;20135;-72
2023/05/18 00:46:08;;;;;;;0.20;0.20;;;;;;;14.38;55.40;100250.78;5079415;28;20108;-72
2023/05/18 00:48:34;;;;;;;0.32;0.10;;;;;;;14.34;55.67;100255.25;5099245;27;20057;-72
2023/05/18 00:51:00;;;;;;;0.20;0.20;;;;;;;14.26;55.85;100259.44;5084497;28;20052;-72
2023/05/18 00:53:26;;;;;;;0.10;0.10;;;;;;;14.27;55.79;100261.06;5104701;28;20048;-71
2023/05/18 00:55:53;;;;;;;0.22;0.22;;;;;;;14.28;55.63;100253.63;5102952;28;20039;-72
2023/05/18 00:58:20;;;;;;;0.20;0.20;;;;;;;14.25;55.83;100251.47;5093958;27;20060;-72
2023/05/18 01:00:47;;;;;;;0.30;0.30;;;;;;;14.22;56.02;100252.88;5106042;28;20175;-72
2023/05/18 01:03:14;;;;;;;0.20;0.20;;;;;;;14.17;56.27;100258.41;5086052;28;20071;-71
2023/05/18 01:05:41;;;;;;;0.10;0.10;;;;;;;14.08;56.38;100249.16;5099897;28;20051;-70
2023/05/18 01:08:07;;;;;;;0.20;0.20;;;;;;;14.05;56.76;100256.03;5105839;27;20429;-69
2023/05/18 01:10:39;;;;;;;0.20;0.20;;;;;;;14.02;56.61;100260.16;5124181;27;20100;-72
2023/05/18 01:13:11;;;;;;;0.20;0.20;;;;;;;13.99;57.05;100258.00;5123526;27;20285;-73
2023/05/18 01:15:40;;;;;;;0.10;0.10;;;;;;;13.96;57.35;100258.56;5104914;27;20344;-72
2023/05/18 01:18:14;;;;;;;0.10;0.10;;;;;;;13.93;57.61;100258.31;5123255;27;20959;-71
2023/05/18 01:20:45;;;;;;;0.20;0.20;;;;;;;13.93;57.64;100259.16;5100031;28;20565;-71
2023/05/18 01:23:40;;;;;;;0.13;0.13;;;;;;;13.92;57.67;100268.50;5102140;28;20050;-71
2023/05/18 01:26:15;;;;;;;0.20;0.20;;;;;;;13.94;57.50;100257.19;5075497;28;20052;-71
2023/05/18 01:28:45;;;;;;;0.20;0.20;;;;;;;13.95;57.98;100261.59;5090605;28;20044;-71
2023/05/18 01:31:12;;;;;;;0.20;0.20;;;;;;;13.95;57.90;100254.19;5082845;28;20854;-71
2023/05/18 01:33:39;;;;;;;0.20;0.20;;;;;;;13.97;57.64;100259.38;5101560;28;20059;-71
2023/05/18 01:36:06;;;;;;;0.10;0.10;;;;;;;13.97;58.21;100251.97;5085100;28;20062;-70
2023/05/18 01:38:33;;;;;;;0.10;0.10;;;;;;;13.96;57.94;100257.75;5081452;28;20098;-70
2023/05/18 01:41:05;;;;;;;0.10;0.10;;;;;;;13.97;57.93;100251.13;5101520;28;20068;-70
2023/05/18 01:43:36;;;;;;;0.10;0.10;;;;;;;13.97;57.61;100254.72;5102975;28;20051;-72
2023/05/18 01:46:12;;;;;;;0.10;0.10;;;;;;;13.95;58.24;100254.19;5102155;28;20047;-72
2023/05/18 01:48:47;;;;;;;0.20;0.20;;;;;;;13.97;58.00;100259.38;5102362;28;20043;-71
2023/05/18 01:51:17;;;;;;;0.20;0.20;;;;;;;13.97;58.20;100251.97;5099813;27;20525;-72
2023/05/18 01:53:48;;;;;;;0.20;0.20;;;;;;;13.99;58.40;100248.94;5093392;28;20047;-72
2023/05/18 01:56:16;;;;;;;0.20;0.20;;;;;;;14.01;58.10;100261.28;5089749;28;20121;-72
2023/05/18 01:58:44;;;;;;;0.17;0.17;;;;;;;14.03;58.13;100269.25;5094280;28;20407;-72
2023/05/18 02:01:11;;;;;;;0.20;0.20;;;;;;;14.01;58.43;100264.03;5101795;28;20043;-73
2023/05/18 02:03:37;;;;;;;0.20;0.20;;;;;;;13.99;58.49;100262.69;5100975;28;20043;-71
2023/05/18 02:06:03;;;;;;;0.20;0.20;;;;;;;14.02;58.53;100259.34;5096380;28;20135;-72
2023/05/18 02:08:30;;;;;;;0.25;0.20;;;;;;;14.04;58.51;100262.63;5089180;28;20040;-72
2023/05/18 02:10:57;;;;;;;0.15;0.15;;;;;;;14.05;58.50;100267.03;5087890;28;20150;-70
2023/05/18 02:13:23;;;;;;;0.20;0.20;;;;;;;14.04;58.59;100265.38;5095100;28;20048;-70
2023/05/18 02:15:51;;;;;;;0.20;0.20;;;;;;;14.13;58.66;100273.84;5073370;27;20044;-71
2023/05/18 02:18:17;;;;;;;0.10;0.10;;;;;;;14.15;58.21;100258.69;5116352;27;20108;-70
2023/05/18 02:20:43;;;;;;;0.20;0.20;;;;;;;14.21;58.20;100273.25;5111631;27;20066;-71
2023/05/18 02:23:09;;;;;;;0.20;0.20;;;;;;;14.20;58.20;100266.06;5118240;27;20043;-70
2023/05/18 02:25:36;;;;;;;0.10;0.10;;;;;;;14.25;58.62;100267.97;5123777;27;20449;-71
2023/05/18 02:28:03;;;;;;;0.20;0.20;;;;;;;14.28;58.43;100276.47;5088391;27;20043;-71
2023/05/18 02:30:32;;;;;;;0.20;0.20;;;;;;;14.28;58.07;100259.13;5107609;27;20069;-70
2023/05/18 02:32:59;;;;;;;0.20;0.20;;;;;;;14.37;57.21;100264.84;5106265;27;20043;-71
2023/05/18 02:35:26;;;;;;;0.22;0.22;;;;;;;14.37;57.31;100273.09;5095777;27;20092;-71
2023/05/18 02:37:52;;;;;;;0.20;0.20;;;;;;;14.38;57.54;100266.50;5085500;27;20036;-71
2023/05/18 02:40:19;;;;;;;0.20;0.20;;;;;;;14.41;57.62;100268.66;5105284;27;20047;-71
2023/05/18 02:42:45;;;;;;;0.20;0.20;;;;;;;14.45;57.44;100276.06;5103823;27;20055;-69
2023/05/18 02:45:11;;;;;;;0.20;0.20;;;;;;;14.46;57.51;100266.69;5114094;27;20038;-71
2023/05/18 02:47:39;;;;;;;0.40;0.30;;;;;;;14.54;57.08;100270.75;5109674;27;20132;-71
2023/05/18 02:50:08;;;;;;;0.20;0.20;;;;;;;14.58;57.11;100269.03;5106632;27;20051;-71
2023/05/18 02:52:35;;;;;;;0.20;0.20;;;;;;;14.58;56.95;100280.03;5070940;27;20051;-71
2023/05/18 02:55:02;;;;;;;0.28;0.22;;;;;;;14.60;57.11;100280.56;5103697;27;20116;-71
2023/05/18 02:57:58;;;;;;;0.20;0.20;;;;;;;14.67;57.02;100273.91;5085661;27;20051;-71
2023/05/18 03:00:43;;;;;;;0.20;0.20;;;;;;;14.73;56.92;100278.28;5107736;27;20058;-71
2023/05/18 03:03:14;;;;;;;0.20;0.20;;;;;;;14.74;56.73;100269.72;5104982;27;20051;-71
2023/05/18 03:05:45;;;;;;;0.20;0.20;;;;;;;14.78;56.64;100275.47;5108119;27;20098;-71
2023/05/18 03:08:13;;;;;;;0.20;0.20;;;;;;;14.83;56.55;100272.69;5098755;27;20058;-71
2023/05/18 03:10:39;;;;;;;0.20;0.20;;;;;;;14.91;56.54;100278.66;5118401;27;20057;-72
2023/05/18 03:13:06;;;;;;;0.20;0.20;;;;;;;15.02;56.54;100275.47;5094594;27;20047;-72
2023/05/18 03:15:32;;;;;;;0.20;0.20;;;;;;;15.10;56.68;100279.50;5095047;28;20050;-72
2023/05/18 03:17:59;;;;;;;0.20;0.20;;;;;;;15.20;56.52;100286.81;5101084;28;20090;-71
2023/05/18 03:20:26;;;;;;;0.30;0.30;;;;;;;15.28;56.15;100285.34;5084589;28;20052;-71
2023/05/18 03:22:54;;;;;;;0.20;0.20;;;;;;;15.36;55.78;100281.13;5103331;28;20078;-72
2023/05/18 03:25:21;;;;;;;0.20;0.20;;;;;;;15.41;55.94;100287.41;5103409;28;20047;-71
2023/05/18 03:27:48;;;;;;;0.20;0.20;;;;;;;15.50;55.73;100276.53;5084305;28;20570;-71
2023/05/18 03:30:14;;;;;;;0.20;0.20;;;;;;;15.52;55.46;100274.28;5102116;28;20138;-71
2023/05/18 03:32:41;;;;;;;0.25;0.25;;;;;;;15.57;55.16;100282.50;5085957;28;20047;-71
2023/05/18 03:35:08;;;;;;;0.20;0.20;;;;;;;15.69;55.04;100278.50;5091416;28;20071;-71
2023/05/18 03:37:34;;;;;;;0.20;0.20;;;;;;;15.72;54.99;100277.91;5103568;28;20417;-71
2023/05/18 03:40:10;;;;;;;0.53;0.30;;;;;;;15.77;54.72;100283.34;5106040;28;20048;-71
2023/05/18 03:42:37;;;;;;;0.20;0.20;;;;;;;15.81;54.78;100283.56;5103338;28;20308;-71
2023/05/18 03:45:05;;;;;;;0.30;0.30;;;;;;;15.88;54.39;100281.22;5103140;28;20054;-71
2023/05/18 03:47:31;;;;;;;0.20;0.20;;;;;;;15.96;54.27;100296.31;5065914;28;20077;-70
2023/05/18 03:49:58;;;;;;;0.30;0.30;;;;;;;16.07;54.32;100288.69;5104300;27;20533;-71
2023/05/18 03:52:24;;;;;;;0.20;0.20;;;;;;;16.21;53.83;100289.56;5124279;27;20047;-72
2023/05/18 03:54:51;;;;;;;0.30;0.30;;;;;;;16.29;53.75;100282.56;5121960;27;20059;-71
2023/05/18 03:57:19;;;;;;;0.20;0.20;;;;;;;16.38;53.16;100291.78;5124181;27;20051;-70
2023/05/18 03:59:45;;;;;;;0.20;0.20;;;;;;;16.49;52.96;100294.38;5109205;27;20040;-72
2023/05/18 04:02:11;;;;;;;0.30;0.30;;;;;;;16.57;52.55;100294.50;5103952;28;20079;-73
2023/05/18 04:04:44;;;;;;;0.30;0.30;;;;;;;16.67;52.13;100293.50;5098416;28;20044;-72
2023/05/18 04:07:11;;;;;;;0.30;0.30;;;;;;;16.73;51.11;100292.25;5087596;28;20043;-73
2023/05/18 04:09:38;;;;;;;0.30;0.30;;;;;;;16.86;51.06;100292.59;5104721;28;20048;-72
2023/05/18 04:12:05;;;;;;;0.30;0.30;;;;;;;16.92;50.15;100294.13;5103828;28;20051;-73
2023/05/18 04:14:32;;;;;;;0.30;0.30;;;;;;;17.04;50.07;100295.59;5073196;28;20048;-73
2023/05/18 04:17:06;;;;;;;0.30;0.30;;;;;;;17.15;49.59;100294.28;5086933;28;20599;-73
2023/05/18 04:19:33;;;;;;;0.30;0.30;;;;;;;17.23;49.55;100293.53;5104670;28;20040;-71
2023/05/18 04:22:03;;;;;;;0.20;0.20;;;;;;;17.27;49.32;100294.59;5089370;27;20040;-71
2023/05/18 04:24:31;;;;;;;0.32;0.30;;;;;;;17.34;49.26;100296.94;5087890;27;20042;-70
2023/05/18 04:26:59;;;;;;;0.30;0.30;;;;;;;17.43;48.53;100292.31;5079126;28;20044;-70
2023/05/18 04:29:26;;;;;;;;;;;;;;;17.50;48.77;100293.84;5093098;28;20466;-70
2023/05/18 04:31:59;;;;;;;0.30;0.30;;;;;;;17.57;48.10;100291.47;5090943;28;19923;-71
2023/05/18 04:34:26;;;;;;;0.30;0.30;;;;;;;17.61;48.13;100292.47;5096746;28;20486;-70
2023/05/18 04:36:58;;;;;;;0.30;0.30;;;;;;;17.66;48.03;100295.16;5097969;27;20047;-70
2023/05/18 04:39:26;;;;;;;0.30;0.30;;;;;;;17.72;47.84;100296.66;5079332;28;20071;-70
2023/05/18 04:41:57;;;;;;;0.90;0.30;;;;;;;17.78;47.86;100285.47;5092365;27;20101;-70
2023/05/18 04:44:26;;;;;;;0.40;0.40;;;;;;;17.87;47.71;100294.66;5091508;28;20051;-72
2023/05/18 04:47:03;;;;;;;0.30;0.30;;;;;;;17.99;47.46;100283.88;5068446;27;10000842;-72
2023/05/18 04:49:31;;;;;;;0.30;0.30;;;;;;;18.10;46.60;100280.88;5093174;27;21061;-71
2023/05/18 04:51:58;;;;;;;0.30;0.30;;;;;;;18.18;46.62;100282.06;5093370;28;20074;-72
2023/05/18 04:54:29;;;;;;;0.30;0.30;;;;;;;18.20;46.01;100277.06;5057116;28;20055;-71
2023/05/18 04:56:58;;;;;;;0.30;0.30;;;;;;;18.29;46.07;100277.91;5090911;28;20058;-72
2023/05/18 04:59:25;;;;;;;0.20;0.20;;;;;;;18.38;46.08;100286.28;5088191;28;20516;-72
2023/05/18 05:01:52;;;;;;;0.30;0.30;;;;;;;18.45;45.78;100281.13;5091344;28;20048;-72
2023/05/18 05:04:20;;;;;;;0.40;0.40;;;;;;;18.51;45.63;100290.94;5088852;28;20367;-72
2023/05/18 05:06:46;;;;;;;0.30;0.30;;;;;;;18.58;45.36;100293.25;5088441;27;20215;-72
2023/05/18 05:09:16;;;;;;;0.30;0.30;;;;;;;18.67;45.19;100284.97;5093158;28;20052;-72
2023/05/18 05:11:43;;;;;;;0.38;0.38;;;;;;;18.76;45.38;100285.03;5099774;28;20419;-70
2023/05/18 05:14:10;;;;;;;0.30;0.30;;;;;;;18.83;44.60;100286.19;5071964;28;20039;-71
2023/05/18 05:16:38;;;;;;;0.30;0.30;;;;;;;18.93;43.81;100292.63;5104810;27;20063;-70
2023/05/18 05:19:05;;;;;;;0.30;0.30;;;;;;;19.00;44.02;100292.97;5091015;27;20112;-71
2023/05/18 05:21:33;;;;;;;0.30;0.30;;;;;;;19.11;43.85;100286.03;5088959;27;20043;-71
2023/05/18 05:24:03;;;;;;;0.30;0.30;;;;;;;19.21;44.00;100289.66;5088527;27;20054;-71
2023/05/18 05:26:30;;;;;;;0.30;0.30;;;;;;;19.25;42.50;100285.09;5088712;27;20059;-71
2023/05/18 05:28:57;;;;;;;0.40;0.33;;;;;;;19.33;42.52;100292.59;5098598;27;20508;-71
2023/05/18 05:31:23;;;;;;;0.30;0.30;;;;;;;19.46;42.21;100292.78;5119635;27;20342;-71
2023/05/18 05:33:50;;;;;;;;;;;;;;;19.51;42.18;100289.84;5095321;27;20063;-72
2023/05/18 05:36:16;;;;;;;0.30;0.30;;;;;;;19.51;41.74;100285.16;5109632;27;19930;-71
2023/05/18 05:38:44;;;;;;;0.30;0.30;;;;;;;19.58;40.97;100292.16;5108564;27;20037;-71
2023/05/18 05:41:11;;;;;;;0.35;0.35;;;;;;;19.63;40.91;100290.03;5071190;27;20505;-71
2023/05/18 05:43:37;;;;;;;0.30;0.30;;;;;;;19.73;41.52;100282.56;5072243;27;20061;-72
2023/05/18 05:46:04;;;;;;;0.30;0.30;;;;;;;19.82;40.87;100286.97;5092837;27;20431;-72
2023/05/18 05:48:30;;;;;;;0.30;0.30;;;;;;;19.89;41.06;100291.19;5106831;27;20047;-72
2023/05/18 05:50:57;;;;;;;0.30;0.30;;;;;;;19.95;40.83;100287.16;5093521;27;20047;-72
2023/05/18 05:53:23;;;;;;;0.30;0.30;;;;;;;20.01;40.19;100285.06;5094070;27;20074;-71
2023/05/18 05:55:51;;;;;;;0.30;0.30;;;;;;;20.04;40.29;100271.31;5092395;27;20311;-72
2023/05/18 05:58:18;;;;;;;0.30;0.30;;;;;;;20.19;40.00;100280.28;5084541;27;20047;-72
2023/05/18 06:00:49;;;;;;;0.30;0.30;;;;;;;20.28;40.07;100283.88;5098709;27;20096;-71
2023/05/18 06:03:16;;;;;;;0.35;0.35;;;;;;;20.36;39.67;100287.78;5095253;27;20054;-72
2023/05/18 06:05:44;;;;;;;0.30;0.30;;;;;;;20.43;39.21;100281.72;5104150;27;20086;-72
2023/05/18 06:08:13;;;;;;;0.30;0.30;;;;;;;20.51;38.56;100281.69;5101304;27;20058;-72
2023/05/18 06:10:40;;;;;;;0.30;0.30;;;;;;;20.63;38.91;100275.44;5104038;27;20095;-72
2023/05/18 06:13:08;;;;;;;0.40;0.40;;;;;;;20.83;38.02;100279.50;5118366;27;20072;-72
2023/05/18 06:15:46;;;;;;;0.30;0.30;;;;;;;21.04;38.29;100283.50;5102811;27;20100;-71
2023/05/18 06:18:13;;;;;;;0.30;0.30;;;;;;;21.28;37.03;100280.13;5099482;27;20462;-72
2023/05/18 06:20:40;;;;;;;0.40;0.40;;;;;;;21.45;36.99;100275.59;5106137;27;20089;-72
2023/05/18 06:23:06;;;;;;;0.30;0.30;;;;;;;21.55;36.96;100275.22;5103674;27;20132;-71
2023/05/18 06:25:54;;;;;;;0.30;0.30;;;;;;;21.71;36.29;100283.78;5105646;27;20039;-71
2023/05/18 06:28:40;;;;;;;0.30;0.30;;;;;;;21.83;35.81;100280.25;5116596;27;20347;-71
2023/05/18 06:31:32;;;;;;;0.40;0.40;;;;;;;21.83;35.41;100276.66;5102856;27;20095;-71
2023/05/18 06:34:21;;;;;;;0.40;0.40;;;;;;;21.91;35.51;100279.38;5117280;27;20050;-72
2023/05/18 06:36:47;;;;;;;0.60;0.40;;;;;;;22.06;35.28;100269.56;5071075;27;20130;-73
2023/05/18 06:39:14;;;;;;;0.40;0.40;;;;;;;22.26;35.03;100269.88;5116630;27;20089;-72
2023/05/18 06:41:41;;;;;;;0.30;0.30;;;;;;;22.37;34.48;100278.63;5095420;27;20309;-73
2023/05/18 06:44:09;;;;;;;0.30;0.30;;;;;;;22.39;34.58;100271.53;5115819;27;20054;-72
2023/05/18 06:46:35;;;;;;;0.30;0.30;;;;;;;22.50;33.97;100279.50;5101931;27;20576;-73
2023/05/18 06:49:07;;;;;;;0.40;0.40;;;;;;;22.56;33.60;100268.94;5074963;27;20413;-72
2023/05/18 06:51:33;;;;;;;0.40;0.40;;;;;;;22.67;33.79;100273.72;5125189;27;20046;-72
2023/05/18 06:54:00;;;;;;;0.40;0.40;;;;;;;22.77;32.21;100274.44;5108095;27;20755;-72
2023/05/18 06:56:26;;;;;;;0.30;0.30;;;;;;;22.66;31.93;100272.09;5086396;27;20390;-70
2023/05/18 06:58:54;;;;;;;0.40;0.40;;;;;;;22.73;32.10;100277.09;5090257;27;20066;-71
2023/05/18 07:01:22;;;;;;;0.30;0.30;;;;;;;22.89;31.42;100282.00;5120712;27;20443;-71
2023/05/18 07:03:48;;;;;;;0.40;0.40;;;;;;;22.90;31.04;100276.09;5105605;27;20047;-71
2023/05/18 07:06:14;;;;;;;0.40;0.40;;;;;;;23.03;31.17;100276.09;5115015;27;20047;-71
2023/05/18 07:08:41;;;;;;;0.40;0.40;;;;;;;23.15;31.30;100272.47;5085435;27;20043;-72
2023/05/18 07:11:08;;;;;;;0.40;0.40;;;;;;;23.41;31.05;100279.69;5120411;27;20113;-72
2023/05/18 07:13:34;;;;;;;;;;;;;;;23.68;30.22;100285.69;5101356;27;20135;-71
2023/05/18 07:16:00;;;;;;;0.33;0.33;;;;;;;23.66;28.54;100280.47;5104317;27;19977;-72
2023/05/18 07:18:27;;;;;;;0.40;0.40;;;;;;;23.71;27.76;100285.78;5123337;27;20505;-71
2023/05/18 07:20:54;;;;;;;0.40;0.40;;;;;;;23.77;28.46;100275.19;5120752;27;20043;-72
2023/05/18 07:23:21;;;;;;;0.40;0.40;;;;;;;23.93;27.62;100289.22;5118771;27;20150;-71
2023/05/18 07:25:47;;;;;;;0.40;0.40;;;;;;;23.80;27.00;100299.63;5109021;27;20051;-72
2023/05/18 07:28:14;;;;;;;0.40;0.40;;;;;;;23.75;26.81;100274.75;5117500;27;20497;-72
2023/05/18 07:30:40;;;;;;;0.30;0.30;;;;;;;23.81;27.35;100287.28;5145932;27;20425;-71
2023/05/18 07:33:06;;;;;;;0.40;0.40;;;;;;;23.88;26.91;100272.72;5115376;27;20527;-72
2023/05/18 07:35:34;;;;;;;0.40;0.40;;;;;;;23.97;27.53;100290.16;5125934;27;20054;-72
2023/05/18 07:38:00;;;;;;;0.40;0.40;;;;;;;24.04;26.71;100283.97;5117061;27;20050;-72
2023/05/18 07:40:26;;;;;;;0.40;0.40;;;;;;;23.90;26.66;100284.34;5125678;27;20104;-72
2023/05/18 07:42:52;;;;;;;0.40;0.40;;;;;;;23.93;27.13;100269.66;5128915;27;20049;-72
2023/05/18 07:45:19;;;;;;;0.50;0.50;;;;;;;24.15;27.16;100276.72;5109379;27;20047;-71
2023/05/18 07:47:45;;;;;;;0.40;0.40;;;;;;;24.53;27.36;100265.34;5126847;27;20087;-71
2023/05/18 07:50:11;;;;;;;0.40;0.40;;;;;;;24.91;26.53;100275.94;5105760;27;20051;-72
2023/05/18 07:52:39;;;;;;;0.40;0.40;;;;;;;24.87;26.48;100263.84;5087196;27;20066;-71
2023/05/18 07:55:06;;;;;;;0.50;0.50;;;;;;;24.89;26.99;100271.88;5089179;27;20055;-71
2023/05/18 07:57:34;;;;;;;0.40;0.40;;;;;;;24.94;26.95;100280.00;5126610;27;20049;-72
2023/05/18 08:00:01;;;;;;;0.40;0.40;;;;;;;25.05;26.92;100278.28;5128625;27;20138;-71
2023/05/18 08:02:30;;;;;;;0.50;0.50;;;;;;;25.33;26.39;100277.34;5127000;27;20103;-70
2023/05/18 08:04:56;;;;;;;0.40;0.40;;;;;;;25.37;26.32;100294.22;5103632;27;20103;-71
2023/05/18 08:07:25;;;;;;;0.40;0.40;;;;;;;25.34;26.57;100275.31;5123956;27;20057;-71
2023/05/18 08:09:52;;;;;;;0.40;0.40;;;;;;;25.55;25.92;100277.84;5083489;27;20043;-71
2023/05/18 08:12:18;;;;;;;0.50;0.50;;;;;;;25.83;25.48;100271.25;5120336;27;20597;-71
2023/05/18 08:14:45;;;;;;;0.40;0.40;;;;;;;26.16;24.75;100274.72;5115976;27;20071;-70
2023/05/18 08:17:11;;;;;;;0.50;0.50;;;;;;;26.31;24.66;100281.41;5123036;27;20065;-71
2023/05/18 08:19:37;;;;;;;0.40;0.40;;;;;;;26.43;24.24;100263.59;5126635;27;20055;-70
2023/05/18 08:22:04;;;;;;;0.50;0.50;;;;;;;26.20;24.35;100261.59;5077147;27;20047;-70
2023/05/18 08:24:30;;;;;;;0.50;0.50;;;;;;;26.27;24.13;100261.72;5110934;27;20063;-70
2023/05/18 08:26:58;;;;;;;0.50;0.50;;;;;;;26.39;23.20;100266.38;5101177;27;20069;-71
2023/05/18 08:29:25;;;;;;;0.40;0.40;;;;;;;26.51;22.41;100268.19;5120176;27;20043;-71
2023/05/18 08:31:51;;;;;;;0.40;0.40;;;;;;;25.75;23.04;100259.06;5111713;27;20429;-71
2023/05/18 08:34:17;;;;;;;0.50;0.50;;;;;;;25.82;23.12;100261.22;5128920;27;20039;-71
2023/05/18 08:36:44;;;;;;;0.50;0.50;;;;;;;26.76;22.17;100254.59;5104051;27;20175;-71
2023/05/18 08:39:10;;;;;;;0.60;0.60;;;;;;;26.54;21.64;100270.22;5123532;27;20062;-71
2023/05/18 08:41:43;;;;;;;0.50;0.50;;;;;;;26.58;21.35;100262.69;5068499;27;20083;-73
2023/05/18 08:44:18;;;;;;;0.63;0.63;;;;;;;27.19;21.43;100259.31;5119367;27;20099;-70
2023/05/18 08:46:49;;;;;;;0.40;0.40;;;;;;;27.57;21.32;100254.66;5120185;27;20058;-71
2023/05/18 08:49:18;;;;;;;0.60;0.60;;;;;;;27.41;21.81;100254.00;5098175;27;20532;-71
2023/05/18 08:51:49;;;;;;;0.60;0.60;;;;;;;28.17;21.26;100250.19;5098580;27;20490;-71
2023/05/18 08:54:19;;;;;;;0.60;0.60;;;;;;;28.59;20.47;100253.00;5098946;27;20431;-71
2023/05/18 08:56:47;;;;;;;0.40;0.40;;;;;;;28.31;20.67;100277.63;5107193;27;20307;-71
2023/05/18 08:59:21;;;;;;;0.60;0.60;;;;;;;27.77;20.97;100264.94;5125481;27;20133;-71
2023/05/18 09:01:48;;;;;;;0.60;0.60;;;;;;;28.10;20.27;100255.72;5119492;27;20051;-72
2023/05/18 09:04:15;;;;;;;0.68;0.68;;;;;;;28.53;19.87;100257.34;5095454;27;20055;-72
2023/05/18 09:06:42;;;;;;;0.60;0.60;;;;;;;29.11;19.87;100244.59;5103023;27;20047;-73
2023/05/18 09:09:09;;;;;;;0.63;0.63;;;;;;;29.94;18.65;100244.22;5102744;27;20462;-72
2023/05/18 09:11:37;;;;;;;0.70;0.70;;;;;;;30.41;18.46;100244.34;5089573;27;20079;-73
2023/05/18 09:14:03;;;;;;;0.80;0.80;;;;;;;30.68;18.87;100235.53;5122849;27;20512;-72
2023/05/18 09:16:32;;;;;;;0.80;0.80;;;;;;;31.37;17.96;100229.81;5113516;27;20529;-72
2023/05/18 09:18:59;;;;;;;0.80;0.80;;;;;;;31.79;17.98;100221.63;5118303;27;20115;-73
2023/05/18 09:21:25;;;;;;;0.80;0.80;;;;;;;31.66;17.41;100228.91;5118359;27;20047;-73
2023/05/18 09:23:52;;;;;;;0.80;0.80;;;;;;;30.90;18.29;100235.53;5096570;27;20045;-72
2023/05/18 09:26:18;;;;;;;0.80;0.80;;;;;;;30.65;18.10;100229.91;5117780;27;20567;-72
2023/05/18 09:28:48;;;;;;;0.90;0.90;;;;;;;30.99;17.66;100226.66;5094002;27;20398;-72
2023/05/18 09:31:18;;;;;;;0.80;0.80;;;;;;;31.66;17.43;100229.72;5119322;27;20456;-73
2023/05/18 09:33:46;;;;;;;0.90;0.90;;;;;;;31.92;17.06;100235.28;5114876;27;20538;-73
2023/05/18 09:36:16;;;;;;;0.88;0.88;;;;;;;31.47;17.01;100236.66;5115546;27;20513;-72
2023/05/18 09:38:46;;;;;;;0.90;0.90;;;;;;;31.65;17.24;100228.13;5102630;27;20419;-72
2023/05/18 09:41:14;;;;;;;1.00;1.00;;;;;;;31.50;17.33;100233.00;5086801;27;20569;-72
2023/05/18 09:43:42;;;;;;;0.50;0.50;;;;;;;30.98;17.43;100228.66;5104109;27;20051;-73
2023/05/18 09:46:10;;;;;;;1.00;1.00;;;;;;;30.64;18.07;100236.75;5098963;27;20164;-73
2023/05/18 09:48:40;;;;;;;1.00;1.00;;;;;;;31.30;16.97;100227.03;5117030;27;20525;-72
2023/05/18 09:51:10;;;;;;;1.00;1.00;;;;;;;31.86;17.39;100222.81;5125835;27;20088;-73
2023/05/18 09:53:36;;;;;;;1.00;1.00;;;;;;;32.21;16.51;100226.63;5125965;27;20039;-73
2023/05/18 09:56:05;;;;;;;1.00;1.00;;;;;;;32.18;16.31;100214.13;5126690;27;20039;-73
2023/05/18 09:58:32;;;;;;;1.00;1.00;;;;;;;32.76;16.17;100224.22;5107574;27;20492;-73
2023/05/18 10:01:01;;;;;;;1.10;1.10;;;;;;;33.34;16.07;100232.16;5128507;27;20047;-73
2023/05/18 10:03:34;;;;;;;1.10;1.10;;;;;;;32.65;16.11;100221.47;5087756;28;20529;-73
2023/05/18 10:06:03;;;;;;;1.10;1.10;;;;;;;32.43;16.10;100221.66;5107841;27;20055;-73
2023/05/18 10:08:31;;;;;;;1.20;1.10;;;;;;;32.63;15.71;100216.25;5118186;27;20047;-73
2023/05/18 10:10:57;;;;;;;1.10;1.10;;;;;;;33.18;15.27;100212.94;5141053;27;20532;-72
2023/05/18 10:13:25;;;;;;;1.20;1.20;;;;;;;33.58;15.06;100206.81;5144060;27;20081;-73
2023/05/18 10:15:54;;;;;;;1.10;1.10;;;;;;;34.07;14.93;100204.56;5137741;27;20560;-73
2023/05/18 10:18:22;;;;;;;0.50;0.50;;;;;;;34.53;14.30;100204.28;5111672;27;20048;-72
2023/05/18 10:20:50;;;;;;;0.50;0.50;;;;;;;33.12;15.19;100214.59;5120178;27;20158;-73
2023/05/18 10:23:18;;;;;;;0.90;0.90;;;;;;;31.21;17.05;100210.50;5088710;27;20046;-72
2023/05/18 10:25:48;;;;;;;1.10;1.10;;;;;;;31.46;16.47;100209.63;5116368;27;20043;-72
2023/05/18 10:28:26;;;;;;;1.20;1.20;;;;;;;32.81;15.98;100207.59;5107852;27;20130;-73
2023/05/18 10:30:54;;;;;;;1.30;1.20;;;;;;;33.31;15.54;100218.84;5088603;28;20070;-73
2023/05/18 10:33:23;;;;;;;1.30;1.20;;;;;;;33.24;15.50;100206.34;5087206;27;20581;-73
2023/05/18 10:35:51;;;;;;;1.30;1.20;;;;;;;33.59;14.84;100203.56;5107318;28;20403;-73
2023/05/18 10:38:19;;;;;;;1.30;1.20;;;;;;;33.79;14.89;100214.22;5125967;27;20141;-73
2023/05/18 10:40:49;;;;;;;1.30;1.20;;;;;;;33.61;14.66;100214.47;5087565;27;20040;-73
2023/05/18 10:43:18;;;;;;;1.30;1.20;;;;;;;34.00;14.72;100201.81;5099526;27;20043;-71
2023/05/18 10:45:51;;;;;;;1.30;1.20;;;;;;;34.61;14.20;100196.44;5120943;27;20047;-72
2023/05/18 10:48:19;;;;;;;1.40;1.30;;;;;;;35.24;13.82;100208.28;5099763;27;20168;-72
2023/05/18 10:50:48;;;;;;;1.40;1.30;;;;;;;35.09;13.69;100199.25;5100797;27;21454;-72
2023/05/18 10:53:16;;;;;;;1.50;1.40;;;;;;;33.82;14.34;100189.91;5079106;27;20621;-71
2023/05/18 10:55:42;;;;;;;0.50;0.50;;;;;;;32.49;15.33;100188.09;5095176;27;20058;-72
2023/05/18 10:58:14;;;;;;;0.50;0.50;;;;;;;31.52;16.27;100182.53;5117840;27;20578;-71
2023/05/18 11:00:43;;;;;;;1.00;1.00;;;;;;;31.43;16.88;100185.03;5111564;27;20135;-72
2023/05/18 11:03:12;;;;;;;1.25;1.20;;;;;;;31.11;16.92;100183.88;5125798;27;20047;-72
2023/05/18 11:05:41;;;;;;;1.40;1.30;;;;;;;32.18;15.87;100190.72;5126450;27;20112;-72
2023/05/18 11:08:08;;;;;;;1.40;1.30;;;;;;;33.80;15.02;100174.13;5101379;27;20054;-72
2023/05/18 11:10:39;;;;;;;1.45;1.30;;;;;;;35.08;13.70;100166.41;5118520;27;20445;-73
2023/05/18 11:13:06;;;;;;;1.40;1.30;;;;;;;35.78;13.54;100170.22;5117097;27;20044;-72
2023/05/18 11:15:50;;;;;;;;;;;;;;;36.21;13.14;100161.94;5097720;27;20051;-73
2023/05/18 11:18:18;;;;;;;1.45;1.35;;;;;;;36.10;13.00;100168.69;5078685;28;19924;-73
2023/05/18 11:20:45;;;;;;;1.40;1.30;;;;;;;35.99;13.40;100163.25;5056113;28;20209;-71
2023/05/18 11:23:19;;;;;;;1.40;1.30;;;;;;;36.36;12.72;100163.19;5076878;28;20101;-73
2023/05/18 11:25:48;;;;;;;1.50;1.40;;;;;;;36.23;13.04;100168.81;5079369;28;20400;-72
2023/05/18 11:28:14;;;;;;;1.50;1.40;;;;;;;35.81;13.05;100168.56;5082547;28;20054;-73
2023/05/18 11:30:48;;;;;;;1.50;1.40;;;;;;;35.62;13.35;100162.47;5081795;28;20412;-72
2023/05/18 11:33:17;;;;;;;1.50;1.40;;;;;;;35.67;13.67;100167.63;5077826;28;20419;-73